createdAt,value
2023-05-12T00:00:41.450Z,713.00
2023-05-12T00:01:41.458Z,718.00
2023-05-12T00:02:42.587Z,720.00
2023-05-12T00:03:42.588Z,716.00
2023-05-12T00:04:42.472Z,718.00
2023-05-12T00:05:41.434Z,733.00
2023-05-12T00:06:41.442Z,723.00
2023-05-12T00:07:42.416Z,719.00
2023-05-12T00:08:41.449Z,725.00
2023-05-12T00:09:41.429Z,724.00
2023-05-12T00:10:42.412Z,715.00
2023-05-12T00:11:42.456Z,708.00
2023-05-12T00:12:41.457Z,714.00
2023-05-12T00:13:41.474Z,707.00
2023-05-12T00:14:42.479Z,706.00
2023-05-12T00:15:42.456Z,704.00
2023-05-12T00:16:42.550Z,711.00
2023-05-12T00:17:41.526Z,708.00
2023-05-12T00:18:42.478Z,715.00
2023-05-12T00:19:41.426Z,711.00
2023-05-12T00:20:42.428Z,718.00
2023-05-12T00:21:41.448Z,716.00
2023-05-12T00:22:41.442Z,717.00
2023-05-12T00:23:42.424Z,697.00
2023-05-12T00:24:41.425Z,714.00
2023-05-12T00:25:41.428Z,704.00
2023-05-12T00:26:41.416Z,713.00
2023-05-12T00:27:41.561Z,708.00
2023-05-12T00:28:42.412Z,710.00
2023-05-12T00:29:41.430Z,714.00
2023-05-12T00:30:42.438Z,713.00
2023-05-12T00:31:42.486Z,703.00
2023-05-12T00:32:41.494Z,696.00
2023-05-12T00:33:42.424Z,710.00
2023-05-12T00:34:42.451Z,699.00
2023-05-12T00:35:42.465Z,700.00
2023-05-12T00:36:41.503Z,712.00
2023-05-12T00:37:42.495Z,697.00
2023-05-12T00:38:42.519Z,705.00
2023-05-12T00:39:42.522Z,698.00
2023-05-12T00:40:42.519Z,701.00
2023-05-12T00:41:42.543Z,690.00
2023-05-12T00:42:41.543Z,681.00
2023-05-12T00:43:42.569Z,690.00
2023-05-12T00:44:42.569Z,694.00
2023-05-12T00:45:41.578Z,685.00
2023-05-12T00:46:42.573Z,688.00
2023-05-12T00:47:41.586Z,695.00
2023-05-12T00:48:42.562Z,683.00
2023-05-12T00:49:42.538Z,683.00
2023-05-12T00:50:41.547Z,690.00
2023-05-12T00:51:42.528Z,712.00
2023-05-12T00:52:42.546Z,694.00
2023-05-12T00:53:50.060Z,682.00
2023-05-12T00:54:42.520Z,683.00
2023-05-12T00:55:42.525Z,687.00
2023-05-12T00:56:42.499Z,692.00
2023-05-12T00:57:42.517Z,684.00
2023-05-12T00:58:42.496Z,702.00
2023-05-12T00:59:42.480Z,686.00
2023-05-12T01:00:42.502Z,686.00
2023-05-12T01:01:42.513Z,686.00
2023-05-12T01:02:41.726Z,681.00
2023-05-12T01:03:42.540Z,679.00
2023-05-12T01:04:42.440Z,684.00
2023-05-12T01:05:42.441Z,685.00
2023-05-12T01:06:41.424Z,686.00
2023-05-12T01:07:42.462Z,686.00
2023-05-12T01:08:42.439Z,674.00
2023-05-12T01:09:42.424Z,676.00
2023-05-12T01:10:42.421Z,678.00
2023-05-12T01:11:43.609Z,672.00
2023-05-12T01:12:42.392Z,695.00
2023-05-12T01:13:42.387Z,682.00
2023-05-12T01:14:42.403Z,679.00
2023-05-12T01:15:42.398Z,665.00
2023-05-12T01:16:42.392Z,671.00
2023-05-12T01:17:41.476Z,665.00
2023-05-12T01:18:41.414Z,676.00
2023-05-12T01:19:42.357Z,670.00
2023-05-12T01:20:42.349Z,674.00
2023-05-12T01:21:42.329Z,675.00
2023-05-12T01:22:42.342Z,666.00
2023-05-12T01:23:42.335Z,676.00
2023-05-12T01:24:42.324Z,665.00
2023-05-12T01:25:41.314Z,670.00
2023-05-12T01:26:42.297Z,674.00
2023-05-12T01:27:42.298Z,665.00
2023-05-12T01:28:42.322Z,663.00
2023-05-12T01:29:42.318Z,669.00
2023-05-12T01:30:41.342Z,668.00
2023-05-12T01:31:42.370Z,666.00
2023-05-12T01:32:41.364Z,663.00
2023-05-12T01:33:42.364Z,665.00
2023-05-12T01:34:42.391Z,663.00
2023-05-12T01:35:42.363Z,665.00
2023-05-12T01:36:42.357Z,661.00
2023-05-12T01:37:42.365Z,663.00
2023-05-12T01:38:42.381Z,666.00
2023-05-12T01:39:42.374Z,665.00
2023-05-12T01:40:42.373Z,662.00
2023-05-12T01:41:42.374Z,669.00
2023-05-12T01:42:41.397Z,662.00
2023-05-12T01:43:42.390Z,660.00
2023-05-12T01:44:42.365Z,664.00
2023-05-12T01:45:41.369Z,659.00
2023-05-12T01:46:42.377Z,656.00
2023-05-12T01:47:42.387Z,659.00
2023-05-12T01:48:41.366Z,663.00
2023-05-12T01:49:42.378Z,656.00
2023-05-12T01:50:41.423Z,656.00
2023-05-12T01:51:42.403Z,662.00
2023-05-12T01:52:41.385Z,657.00
2023-05-12T01:53:42.389Z,660.00
2023-05-12T01:54:42.399Z,658.00
2023-05-12T01:55:42.418Z,657.00
2023-05-12T01:56:42.437Z,660.00
2023-05-12T01:57:41.423Z,658.00
2023-05-12T01:58:42.445Z,659.00
2023-05-12T01:59:41.445Z,653.00
2023-05-12T02:00:41.450Z,652.00
2023-05-12T02:01:42.531Z,654.00
2023-05-12T02:02:43.381Z,663.00
2023-05-12T02:03:41.598Z,656.00
2023-05-12T02:04:42.468Z,654.00
2023-05-12T02:05:42.486Z,650.00
2023-05-12T02:06:41.503Z,653.00
2023-05-12T02:07:42.499Z,649.00
2023-05-12T02:08:41.526Z,654.00
2023-05-12T02:09:41.506Z,653.00
2023-05-12T02:10:42.542Z,649.00
2023-05-12T02:11:42.532Z,653.00
2023-05-12T02:12:41.591Z,652.00
2023-05-12T02:13:42.584Z,656.00
2023-05-12T02:14:42.586Z,650.00
2023-05-12T02:15:41.584Z,655.00
2023-05-12T02:16:41.708Z,652.00
2023-05-12T02:17:42.723Z,651.00
2023-05-12T02:18:42.703Z,652.00
2023-05-12T02:19:43.096Z,646.00
2023-05-12T02:20:41.728Z,648.00
2023-05-12T02:21:41.624Z,646.00
2023-05-12T02:22:42.653Z,652.00
2023-05-12T02:23:41.644Z,647.00
2023-05-12T02:24:41.624Z,647.00
2023-05-12T02:25:42.626Z,645.00
2023-05-12T02:26:41.646Z,645.00
2023-05-12T02:27:41.668Z,649.00
2023-05-12T02:28:42.655Z,647.00
2023-05-12T02:29:42.682Z,645.00
2023-05-12T02:30:41.685Z,646.00
2023-05-12T02:31:42.764Z,650.00
2023-05-12T02:32:42.803Z,648.00
2023-05-12T02:33:42.706Z,647.00
2023-05-12T02:34:42.710Z,647.00
2023-05-12T02:35:42.710Z,646.00
2023-05-12T02:36:41.728Z,641.00
2023-05-12T02:37:42.702Z,647.00
2023-05-12T02:38:42.759Z,644.00
2023-05-12T02:39:41.718Z,646.00
2023-05-12T02:40:41.714Z,648.00
2023-05-12T02:41:42.704Z,643.00
2023-05-12T02:42:42.744Z,646.00
2023-05-12T02:43:42.716Z,645.00
2023-05-12T02:44:41.712Z,639.00
2023-05-12T02:45:41.748Z,641.00
2023-05-12T02:46:42.762Z,639.00
2023-05-12T02:47:42.744Z,642.00
2023-05-12T02:48:42.733Z,642.00
2023-05-12T02:49:42.762Z,644.00
2023-05-12T02:50:42.762Z,639.00
2023-05-12T02:51:42.791Z,641.00
2023-05-12T02:52:42.845Z,640.00
2023-05-12T02:53:42.799Z,645.00
2023-05-12T02:54:41.812Z,643.00
2023-05-12T02:55:42.802Z,642.00
2023-05-12T02:56:42.821Z,643.00
2023-05-12T02:57:41.821Z,636.00
2023-05-12T02:58:41.835Z,641.00
2023-05-12T02:59:42.888Z,636.00
2023-05-12T03:00:41.850Z,639.00
2023-05-12T03:01:42.921Z,639.00
2023-05-12T03:02:43.019Z,633.00
2023-05-12T03:03:43.143Z,642.00
2023-05-12T03:04:41.877Z,645.00
2023-05-12T03:05:41.868Z,640.00
2023-05-12T03:06:42.895Z,636.00
2023-05-12T03:07:41.900Z,636.00
2023-05-12T03:08:41.900Z,639.00
2023-05-12T03:09:41.911Z,635.00
2023-05-12T03:10:43.035Z,638.00
2023-05-12T03:11:42.921Z,635.00
2023-05-12T03:12:41.957Z,636.00
2023-05-12T03:13:42.965Z,630.00
2023-05-12T03:14:42.957Z,635.00
2023-05-12T03:15:42.957Z,634.00
2023-05-12T03:16:42.020Z,633.00
2023-05-12T03:17:42.003Z,633.00
2023-05-12T03:18:42.059Z,630.00
2023-05-12T03:19:42.007Z,625.00
2023-05-12T03:20:42.021Z,633.00
2023-05-12T03:21:43.036Z,634.00
2023-05-12T03:22:43.191Z,634.00
2023-05-12T03:23:43.066Z,628.00
2023-05-12T03:24:42.090Z,633.00
2023-05-12T03:25:43.082Z,627.00
2023-05-12T03:26:42.117Z,627.00
2023-05-12T03:27:42.102Z,628.00
2023-05-12T03:28:43.088Z,631.00
2023-05-12T03:29:43.110Z,632.00
2023-05-12T03:30:43.116Z,630.00
2023-05-12T03:31:43.163Z,628.00
2023-05-12T03:32:42.202Z,630.00
2023-05-12T03:33:43.146Z,627.00
2023-05-12T03:34:42.153Z,628.00
2023-05-12T03:35:42.151Z,627.00
2023-05-12T03:36:43.195Z,625.00
2023-05-12T03:37:42.215Z,622.00
2023-05-12T03:38:43.198Z,630.00
2023-05-12T03:39:43.207Z,623.00
2023-05-12T03:40:43.233Z,628.00
2023-05-12T03:41:43.238Z,631.00
2023-05-12T03:42:43.285Z,624.00
2023-05-12T03:43:43.261Z,625.00
2023-05-12T03:44:43.307Z,623.00
2023-05-12T03:45:43.299Z,623.00
2023-05-12T03:46:43.348Z,628.00
2023-05-12T03:47:42.631Z,627.00
2023-05-12T03:48:43.331Z,623.00
2023-05-12T03:49:42.415Z,623.00
2023-05-12T03:50:42.452Z,628.00
2023-05-12T03:51:43.359Z,624.00
2023-05-12T03:52:42.367Z,623.00
2023-05-12T03:53:43.377Z,629.00
2023-05-12T03:54:43.409Z,622.00
2023-05-12T03:55:43.425Z,622.00
2023-05-12T03:56:43.476Z,624.00
2023-05-12T03:57:43.434Z,622.00
2023-05-12T03:58:43.471Z,622.00
2023-05-12T03:59:42.468Z,622.00
2023-05-12T04:00:42.489Z,624.00
2023-05-12T04:01:43.498Z,622.00
2023-05-12T04:02:42.612Z,623.00
2023-05-12T04:03:43.663Z,626.00
2023-05-12T04:04:42.634Z,620.00
2023-05-12T04:05:43.592Z,622.00
2023-05-12T04:06:42.605Z,618.00
2023-05-12T04:07:43.641Z,623.00
2023-05-12T04:08:43.644Z,615.00
2023-05-12T04:09:42.672Z,616.00
2023-05-12T04:10:43.695Z,612.00
2023-05-12T04:11:43.386Z,610.00
2023-05-12T04:12:43.734Z,618.00
2023-05-12T04:13:43.754Z,617.00
2023-05-12T04:14:43.558Z,614.00
2023-05-12T04:15:43.794Z,619.00
2023-05-12T04:16:43.956Z,612.00
2023-05-12T04:17:43.855Z,611.00
2023-05-12T04:18:43.895Z,613.00
2023-05-12T04:19:43.903Z,617.00
2023-05-12T04:20:43.892Z,611.00
2023-05-12T04:21:42.915Z,618.00
2023-05-12T04:22:43.937Z,611.00
2023-05-12T04:23:43.983Z,611.00
2023-05-12T04:24:44.028Z,611.00
2023-05-12T04:25:43.022Z,614.00
2023-05-12T04:26:43.028Z,613.00
2023-05-12T04:27:43.027Z,617.00
2023-05-12T04:28:44.018Z,614.00
2023-05-12T04:29:44.021Z,608.00
2023-05-12T04:30:43.069Z,615.00
2023-05-12T04:31:43.072Z,614.00
2023-05-12T04:32:44.038Z,612.00
2023-05-12T04:33:45.292Z,613.00
2023-05-12T04:34:44.026Z,617.00
2023-05-12T04:35:44.047Z,617.00
2023-05-12T04:36:44.009Z,614.00
2023-05-12T04:37:44.007Z,613.00
2023-05-12T04:38:44.015Z,612.00
2023-05-12T04:39:44.002Z,609.00
2023-05-12T04:40:43.993Z,607.00
2023-05-12T04:41:43.977Z,603.00
2023-05-12T04:42:43.977Z,610.00
2023-05-12T04:44:42.963Z,610.00
2023-05-12T04:45:42.965Z,610.00
2023-05-12T04:46:44.039Z,610.00
2023-05-12T04:47:44.040Z,610.00
2023-05-12T04:48:43.928Z,611.00
2023-05-12T04:49:42.921Z,610.00
2023-05-12T04:50:43.919Z,604.00
2023-05-12T04:51:43.913Z,606.00
2023-05-12T04:52:43.908Z,607.00
2023-05-12T04:53:42.903Z,608.00
2023-05-12T04:54:43.898Z,605.00
2023-05-12T04:55:43.879Z,606.00
2023-05-12T04:56:42.906Z,606.00
2023-05-12T04:57:43.884Z,611.00
2023-05-12T04:58:43.868Z,605.00
2023-05-12T04:59:42.845Z,609.00
2023-05-12T05:00:42.867Z,611.00
2023-05-12T05:01:44.179Z,608.00
2023-05-12T05:02:42.988Z,604.00
2023-05-12T05:03:42.942Z,611.00
2023-05-12T05:04:43.838Z,604.00
2023-05-12T05:05:43.813Z,602.00
2023-05-12T05:06:43.806Z,604.00
2023-05-12T05:07:43.967Z,605.00
2023-05-12T05:08:43.804Z,610.00
2023-05-12T05:09:43.801Z,603.00
2023-05-12T05:10:43.791Z,606.00
2023-05-12T05:11:43.757Z,609.00
2023-05-12T05:12:42.763Z,610.00
2023-05-12T05:13:43.750Z,604.00
2023-05-12T05:14:42.747Z,607.00
2023-05-12T05:15:42.771Z,613.00
2023-05-12T05:16:43.749Z,601.00
2023-05-12T05:17:43.778Z,610.00
2023-05-12T05:18:43.798Z,607.00
2023-05-12T05:19:53.053Z,605.00
2023-05-12T05:20:45.418Z,606.00
2023-05-12T05:21:43.707Z,606.00
2023-05-12T05:22:43.723Z,608.00
2023-05-12T05:23:43.715Z,609.00
2023-05-12T05:24:42.695Z,611.00
2023-05-12T05:25:43.900Z,610.00
2023-05-12T05:26:43.675Z,610.00
2023-05-12T05:27:43.656Z,605.00
2023-05-12T05:28:43.661Z,605.00
2023-05-12T05:29:43.671Z,601.00
2023-05-12T05:30:42.666Z,603.00
2023-05-12T05:31:42.665Z,602.00
2023-05-12T05:32:42.658Z,603.00
2023-05-12T05:33:43.635Z,600.00
2023-05-12T05:34:42.771Z,601.00
2023-05-12T05:35:42.700Z,543.00
2023-05-12T05:36:42.612Z,497.00
2023-05-12T05:37:42.598Z,500.00
2023-05-12T05:38:43.605Z,500.00
2023-05-12T05:39:42.596Z,500.00
2023-05-12T05:40:53.086Z,503.00
2023-05-12T05:41:43.685Z,502.00
2023-05-12T05:42:43.558Z,493.00
2023-05-12T05:43:43.978Z,491.00
2023-05-12T05:44:44.431Z,476.00
2023-05-12T05:45:43.555Z,472.00
2023-05-12T05:46:43.621Z,505.00
2023-05-12T05:47:42.658Z,502.00
2023-05-12T05:48:42.556Z,502.00
2023-05-12T05:49:42.831Z,502.00
2023-05-12T05:50:43.832Z,500.00
2023-05-12T05:51:43.674Z,500.00
2023-05-12T05:52:43.831Z,508.00
2023-05-12T05:53:43.529Z,514.00
2023-05-12T05:54:42.784Z,519.00
2023-05-12T05:55:45.018Z,500.00
2023-05-12T05:56:42.734Z,501.00
2023-05-12T05:57:42.786Z,518.00
2023-05-12T05:58:43.607Z,522.00
2023-05-12T05:59:43.563Z,512.00
2023-05-12T06:00:43.932Z,504.00
2023-05-12T06:01:44.215Z,500.00
2023-05-12T06:02:42.786Z,503.00
2023-05-12T06:03:43.504Z,505.00
2023-05-12T06:04:43.925Z,508.00
2023-05-12T06:05:42.753Z,505.00
2023-05-12T06:06:43.455Z,502.00
2023-05-12T06:07:43.436Z,500.00
2023-05-12T06:08:42.394Z,500.00
2023-05-12T06:09:43.656Z,502.00
2023-05-12T06:10:43.835Z,502.00
2023-05-12T06:11:42.428Z,505.00
2023-05-12T06:12:43.378Z,500.00
2023-05-12T06:13:42.918Z,501.00
2023-05-12T06:14:43.495Z,501.00
2023-05-12T06:15:43.352Z,501.00
2023-05-12T06:16:42.453Z,500.00
2023-05-12T06:17:43.483Z,502.00
2023-05-12T06:18:42.504Z,504.00
2023-05-12T06:19:42.491Z,505.00
2023-05-12T06:20:42.602Z,500.00
2023-05-12T06:21:43.579Z,503.00
2023-05-12T06:22:42.686Z,500.00
2023-05-12T06:23:42.675Z,500.00
2023-05-12T06:24:42.738Z,503.00
2023-05-12T06:25:42.820Z,506.00
2023-05-12T06:26:43.873Z,501.00
2023-05-12T06:27:42.922Z,500.00
2023-05-12T06:28:42.946Z,508.00
2023-05-12T06:29:43.054Z,504.00
2023-05-12T06:30:43.090Z,503.00
2023-05-12T06:31:43.154Z,500.00
2023-05-12T06:32:43.317Z,500.00
2023-05-12T06:33:44.250Z,500.00
2023-05-12T06:34:44.349Z,505.00
2023-05-12T06:35:43.583Z,510.00
2023-05-12T06:36:43.463Z,502.00
2023-05-12T06:37:43.563Z,502.00
2023-05-12T06:38:43.574Z,502.00
2023-05-12T06:39:44.663Z,504.00
2023-05-12T06:40:43.655Z,510.00
2023-05-12T06:41:44.680Z,510.00
2023-05-12T06:42:44.728Z,503.00
2023-05-12T06:43:44.900Z,500.00
2023-05-12T06:44:43.855Z,509.00
2023-05-12T06:45:43.858Z,502.00
2023-05-12T06:46:45.221Z,503.00
2023-05-12T06:47:45.071Z,511.00
2023-05-12T06:48:45.020Z,521.00
2023-05-12T06:49:44.068Z,522.00
2023-05-12T06:50:44.130Z,523.00
2023-05-12T06:51:45.220Z,532.00
2023-05-12T06:52:45.257Z,534.00
2023-05-12T06:53:45.342Z,540.00
2023-05-12T06:54:44.350Z,537.00
2023-05-12T06:55:45.417Z,542.00
2023-05-12T06:56:44.516Z,541.00
2023-05-12T06:57:44.550Z,547.00
2023-05-12T06:58:45.606Z,550.00
2023-05-12T06:59:44.663Z,544.00
2023-05-12T07:00:45.758Z,546.00
2023-05-12T07:01:45.939Z,537.00
2023-05-12T07:02:46.121Z,532.00
2023-05-12T07:03:46.016Z,539.00
2023-05-12T07:04:47.056Z,542.00
2023-05-12T07:05:46.223Z,546.00
2023-05-12T07:06:46.051Z,566.00
2023-05-12T07:07:46.102Z,575.00
2023-05-12T07:08:45.159Z,578.00
2023-05-12T07:09:46.262Z,587.00
2023-05-12T07:10:46.275Z,589.00
2023-05-12T07:11:46.204Z,586.00
2023-05-12T07:12:46.190Z,588.00
2023-05-12T07:13:46.283Z,593.00
2023-05-12T07:14:46.394Z,594.00
2023-05-12T07:15:45.542Z,601.00
2023-05-12T07:16:46.513Z,606.00
2023-05-12T07:17:46.478Z,601.00
2023-05-12T07:18:46.474Z,616.00
2023-05-12T07:19:46.449Z,613.00
2023-05-12T07:20:45.521Z,622.00
2023-05-12T07:21:46.743Z,620.00
2023-05-12T07:22:45.604Z,623.00
2023-05-12T07:23:45.621Z,630.00
2023-05-12T07:24:46.689Z,630.00
2023-05-12T07:25:45.613Z,626.00
2023-05-12T07:26:46.582Z,635.00
2023-05-12T07:27:46.519Z,632.00
2023-05-12T07:28:45.542Z,634.00
2023-05-12T07:29:46.566Z,632.00
2023-05-12T07:30:46.639Z,642.00
2023-05-12T07:31:47.770Z,643.00
2023-05-12T07:32:45.876Z,645.00
2023-05-12T07:33:46.797Z,654.00
2023-05-12T07:34:45.892Z,655.00
2023-05-12T07:35:46.909Z,660.00
2023-05-12T07:36:47.014Z,655.00
2023-05-12T07:37:47.064Z,664.00
2023-05-12T07:38:46.096Z,663.00
2023-05-12T07:39:47.165Z,671.00
2023-05-12T07:40:47.214Z,671.00
2023-05-12T07:41:47.310Z,671.00
2023-05-12T07:42:47.326Z,675.00
2023-05-12T07:43:47.367Z,677.00
2023-05-12T07:44:47.473Z,669.00
2023-05-12T07:45:46.469Z,673.00
2023-05-12T07:46:47.008Z,671.00
2023-05-12T07:47:47.593Z,706.00
2023-05-12T07:48:47.475Z,734.00
2023-05-12T07:49:47.652Z,732.00
2023-05-12T07:50:47.696Z,751.00
2023-05-12T07:51:46.967Z,778.00
2023-05-12T07:52:48.045Z,788.00
2023-05-12T07:53:47.770Z,846.00
2023-05-12T07:54:47.863Z,894.00
2023-05-12T07:55:46.820Z,968.00
2023-05-12T07:56:47.903Z,1052.00
2023-05-12T07:57:48.147Z,1122.00
2023-05-12T07:58:47.714Z,1179.00
2023-05-12T07:59:47.003Z,1212.00
2023-05-12T08:00:48.049Z,1231.00
2023-05-12T08:01:48.071Z,1278.00
2023-05-12T08:02:48.226Z,1277.00
2023-05-12T08:03:48.217Z,1295.00
2023-05-12T08:04:48.060Z,1320.00
2023-05-12T08:05:48.100Z,1310.00
2023-05-12T08:06:48.073Z,1363.00
2023-05-12T08:07:48.087Z,1408.00
2023-05-12T08:08:48.085Z,1447.00
2023-05-12T08:09:47.139Z,1503.00
2023-05-12T08:10:48.235Z,1555.00
2023-05-12T08:11:49.383Z,1592.00
2023-05-12T08:12:47.291Z,1593.00
2023-05-12T08:13:47.308Z,1593.00
2023-05-12T08:14:48.255Z,1602.00
2023-05-12T08:15:48.248Z,1616.00
2023-05-12T08:16:48.273Z,1660.00
2023-05-12T08:17:48.274Z,1699.00
2023-05-12T08:18:47.244Z,1749.00
2023-05-12T08:19:47.226Z,1782.00
2023-05-12T08:20:48.223Z,1821.00
2023-05-12T08:21:47.222Z,1803.00
2023-05-12T08:22:47.239Z,1852.00
2023-05-12T08:23:48.215Z,1872.00
2023-05-12T08:24:48.192Z,1877.00
2023-05-12T08:25:48.194Z,1876.00
2023-05-12T08:26:48.202Z,1888.00
2023-05-12T08:27:48.178Z,1898.00
2023-05-12T08:28:48.225Z,1902.00
2023-05-12T08:29:47.280Z,1920.00
2023-05-12T08:30:49.177Z,1916.00
2023-05-12T08:31:47.158Z,1925.00
2023-05-12T08:32:48.327Z,1932.00
2023-05-12T08:33:51.972Z,1928.00
2023-05-12T08:34:48.130Z,1930.00
2023-05-12T08:35:48.115Z,1936.00
2023-05-12T08:36:48.113Z,1944.00
2023-05-12T08:37:48.105Z,1958.00
2023-05-12T08:38:48.107Z,1988.00
2023-05-12T08:39:47.151Z,1996.00
2023-05-12T08:40:47.244Z,1990.00
2023-05-12T08:41:48.487Z,1991.00
2023-05-12T08:42:48.078Z,2013.00
2023-05-12T08:43:47.087Z,2010.00
2023-05-12T08:44:48.258Z,2014.00
2023-05-12T08:45:47.110Z,1855.00
2023-05-12T08:46:47.540Z,1750.00
2023-05-12T08:47:47.048Z,1844.00
2023-05-12T08:48:47.046Z,1881.00
2023-05-12T08:49:49.906Z,1886.00
2023-05-12T08:50:48.039Z,1886.00
2023-05-12T08:51:56.880Z,1861.00
2023-05-12T08:52:48.052Z,1886.00
2023-05-12T08:53:47.019Z,1832.00
2023-05-12T08:54:55.581Z,1842.00
2023-05-12T08:56:01.386Z,1887.00
2023-05-12T08:57:46.969Z,1888.00
2023-05-12T08:58:46.983Z,1888.00
2023-05-12T08:59:48.014Z,1863.00
2023-05-12T09:00:47.058Z,1857.00
2023-05-12T09:01:47.073Z,1845.00
2023-05-12T09:02:53.876Z,1829.00
2023-05-12T09:03:48.034Z,1830.00
2023-05-12T09:04:48.033Z,1831.00
2023-05-12T09:05:46.941Z,1803.00
2023-05-12T09:06:46.983Z,1790.00
2023-05-12T09:07:48.050Z,1774.00
2023-05-12T09:08:47.982Z,1778.00
2023-05-12T09:09:47.916Z,1759.00
2023-05-12T09:10:47.899Z,1734.00
2023-05-12T09:11:46.890Z,1739.00
2023-05-12T09:12:47.893Z,1728.00
2023-05-12T09:13:47.912Z,1721.00
2023-05-12T09:14:47.952Z,1697.00
2023-05-12T09:15:47.902Z,1710.00
2023-05-12T09:16:46.980Z,1685.00
2023-05-12T09:17:48.001Z,1693.00
2023-05-12T09:18:47.900Z,1673.00
2023-05-12T09:19:46.838Z,1679.00
2023-05-12T09:20:47.829Z,1664.00
2023-05-12T09:21:46.845Z,1655.00
2023-05-12T09:22:46.836Z,1658.00
2023-05-12T09:23:46.860Z,1659.00
2023-05-12T09:24:46.878Z,1643.00
2023-05-12T09:25:47.143Z,1644.00
2023-05-12T09:26:47.007Z,1641.00
2023-05-12T09:27:48.068Z,1640.00
2023-05-12T09:28:48.132Z,1635.00
2023-05-12T09:29:55.557Z,1633.00
2023-05-12T09:30:48.172Z,1634.00
2023-05-12T09:31:48.215Z,1633.00
2023-05-12T09:32:47.179Z,1611.00
2023-05-12T09:33:48.278Z,1618.00
2023-05-12T09:34:47.147Z,1611.00
2023-05-12T09:35:47.125Z,1607.00
2023-05-12T09:36:48.157Z,1598.00
2023-05-12T09:37:48.130Z,1573.00
2023-05-12T09:38:48.112Z,1584.00
2023-05-12T09:39:47.103Z,1589.00
2023-05-12T09:40:48.177Z,1591.00
2023-05-12T09:41:47.240Z,1589.00
2023-05-12T09:42:48.291Z,1579.00
2023-05-12T09:43:47.414Z,1576.00
2023-05-12T09:44:48.407Z,1580.00
2023-05-12T09:45:48.523Z,1569.00
2023-05-12T09:46:47.519Z,1563.00
2023-05-12T09:47:47.615Z,1555.00
2023-05-12T09:48:47.664Z,1569.00
2023-05-12T09:49:48.775Z,1574.00
2023-05-12T09:50:48.886Z,1565.00
2023-05-12T09:51:48.171Z,1561.00
2023-05-12T09:52:47.877Z,1566.00
2023-05-12T09:53:48.888Z,1560.00
2023-05-12T09:54:48.943Z,1549.00
2023-05-12T09:55:49.000Z,1574.00
2023-05-12T09:56:48.110Z,1570.00
2023-05-12T09:57:48.145Z,1554.00
2023-05-12T09:58:50.149Z,1556.00
2023-05-12T09:59:48.166Z,1553.00
2023-05-12T10:01:48.282Z,1589.00
2023-05-12T10:02:48.213Z,1578.00
2023-05-12T10:03:49.196Z,1588.00
2023-05-12T10:04:49.253Z,1577.00
2023-05-12T10:05:49.274Z,1590.00
2023-05-12T10:06:49.193Z,1591.00
2023-05-12T10:07:49.173Z,1587.00
2023-05-12T10:08:48.264Z,1599.00
2023-05-12T10:09:49.166Z,1596.00
2023-05-12T10:10:49.164Z,1589.00
2023-05-12T10:11:51.971Z,1604.00
2023-05-12T10:12:49.143Z,1606.00
2023-05-12T10:13:49.129Z,1610.00
2023-05-12T10:14:49.147Z,1610.00
2023-05-12T10:15:48.159Z,1616.00
2023-05-12T10:16:49.178Z,1629.00
2023-05-12T10:17:50.909Z,1624.00
2023-05-12T10:18:49.108Z,1625.00
2023-05-12T10:19:49.080Z,1630.00
2023-05-12T10:20:48.078Z,1631.00
2023-05-12T10:21:49.165Z,1630.00
2023-05-12T10:22:49.133Z,1633.00
2023-05-12T10:23:49.097Z,1646.00
2023-05-12T10:24:48.186Z,1648.00
2023-05-12T10:25:48.098Z,1639.00
2023-05-12T10:26:48.036Z,1643.00
2023-05-12T10:27:48.096Z,1657.00
2023-05-12T10:28:49.040Z,1655.00
2023-05-12T10:29:50.646Z,1672.00
2023-05-12T10:30:49.030Z,1672.00
2023-05-12T10:31:48.130Z,1675.00
2023-05-12T10:32:49.077Z,1674.00
2023-05-12T10:33:48.995Z,1674.00
2023-05-12T10:34:49.000Z,1677.00
2023-05-12T10:35:49.767Z,1678.00
2023-05-12T10:36:48.973Z,1695.00
2023-05-12T10:37:49.359Z,1692.00
2023-05-12T10:38:48.981Z,1697.00
2023-05-12T10:39:47.996Z,1692.00
2023-05-12T10:40:49.060Z,1692.00
2023-05-12T10:41:47.933Z,1696.00
2023-05-12T10:42:49.044Z,1685.00
2023-05-12T10:43:48.935Z,1699.00
2023-05-12T10:44:48.916Z,1694.00
2023-05-12T10:45:48.917Z,1692.00
2023-05-12T10:46:49.059Z,1697.00
2023-05-12T10:47:49.090Z,1700.00
2023-05-12T10:48:48.894Z,1708.00
2023-05-12T10:49:47.889Z,1709.00
2023-05-12T10:50:48.888Z,1722.00
2023-05-12T10:51:47.876Z,1714.00
2023-05-12T10:52:48.889Z,1719.00
2023-05-12T10:53:52.594Z,1728.00
2023-05-12T10:54:48.840Z,1730.00
2023-05-12T10:55:49.163Z,1732.00
2023-05-12T10:56:49.145Z,1737.00
2023-05-12T10:57:49.203Z,1745.00
2023-05-12T10:58:48.038Z,1764.00
2023-05-12T10:59:49.071Z,1773.00
2023-05-12T11:00:49.413Z,1765.00
2023-05-12T11:01:49.211Z,1779.00
2023-05-12T11:02:50.001Z,1777.00
2023-05-12T11:03:49.894Z,1788.00
2023-05-12T11:04:48.944Z,1790.00
2023-05-12T11:05:49.129Z,1794.00
2023-05-12T11:06:49.469Z,1802.00
2023-05-12T11:07:50.210Z,1820.00
2023-05-12T11:08:49.117Z,1830.00
2023-05-12T11:10:47.767Z,1792.00
2023-05-12T11:11:47.756Z,1803.00
2023-05-12T11:12:47.712Z,1818.00
2023-05-12T11:13:48.700Z,1842.00
2023-05-12T11:14:47.697Z,1876.00
2023-05-12T11:15:48.759Z,1881.00
2023-05-12T11:16:48.773Z,1896.00
2023-05-12T11:17:47.719Z,1886.00
2023-05-12T11:18:47.697Z,1876.00
2023-05-12T11:19:47.669Z,1901.00
2023-05-12T11:20:48.663Z,1920.00
2023-05-12T11:21:47.662Z,1915.00
2023-05-12T11:22:48.667Z,1929.00
2023-05-12T11:23:48.637Z,1941.00
2023-05-12T11:24:48.648Z,1951.00
2023-05-12T11:25:48.720Z,1946.00
2023-05-12T11:26:48.621Z,1938.00
2023-05-12T11:27:47.679Z,1951.00
2023-05-12T11:28:48.612Z,1967.00
2023-05-12T11:29:48.598Z,1976.00
2023-05-12T11:30:48.654Z,1966.00
2023-05-12T11:31:48.628Z,1981.00
2023-05-12T11:32:47.696Z,1999.00
2023-05-12T11:33:47.606Z,1990.00
2023-05-12T11:34:48.657Z,2004.00
2023-05-12T11:35:47.722Z,2021.00
2023-05-12T11:36:47.758Z,2012.00
2023-05-12T11:37:49.059Z,2001.00
2023-05-12T11:38:48.828Z,2015.00
2023-05-12T11:39:48.866Z,2018.00
2023-05-12T11:40:47.906Z,2026.00
2023-05-12T11:41:48.081Z,2016.00
2023-05-12T11:42:49.150Z,2027.00
2023-05-12T11:43:47.937Z,2018.00
2023-05-12T11:44:48.953Z,2023.00
2023-05-12T11:45:49.054Z,2020.00
2023-05-12T11:46:47.923Z,2023.00
2023-05-12T11:47:47.947Z,2028.00
2023-05-12T11:48:48.956Z,2017.00
2023-05-12T11:49:48.966Z,2030.00
2023-05-12T11:50:48.971Z,2017.00
2023-05-12T11:51:49.558Z,2025.00
2023-05-12T11:52:48.987Z,2008.00
2023-05-12T11:53:48.020Z,2004.00
2023-05-12T11:54:49.053Z,2017.00
2023-05-12T11:55:49.064Z,2014.00
2023-05-12T11:56:49.110Z,2018.00
2023-05-12T11:57:49.147Z,2020.00
2023-05-12T11:58:49.151Z,2013.00
2023-05-12T11:59:49.172Z,2009.00
2023-05-12T12:00:49.183Z,2001.00
2023-05-12T12:01:49.217Z,2009.00
2023-05-12T12:02:48.365Z,2001.00
2023-05-12T12:03:48.364Z,1988.00
2023-05-12T12:04:49.310Z,1992.00
2023-05-12T12:05:48.336Z,2000.00
2023-05-12T12:06:49.368Z,1990.00
2023-05-12T12:07:48.376Z,1982.00
2023-05-12T12:08:49.796Z,1983.00
2023-05-12T12:09:49.436Z,1979.00
2023-05-12T12:10:49.479Z,1977.00
2023-05-12T12:11:49.528Z,1980.00
2023-05-12T12:12:49.556Z,1973.00
2023-05-12T12:13:49.616Z,1971.00
2023-05-12T12:14:49.118Z,1964.00
2023-05-12T12:15:49.710Z,1961.00
2023-05-12T12:16:49.687Z,1961.00
2023-05-12T12:17:48.789Z,1960.00
2023-05-12T12:18:49.828Z,1958.00
2023-05-12T12:19:48.791Z,1958.00
2023-05-12T12:20:48.850Z,1957.00
2023-05-12T12:21:49.873Z,1929.00
2023-05-12T12:22:49.910Z,1954.00
2023-05-12T12:23:51.304Z,1965.00
2023-05-12T12:24:49.926Z,1964.00